Time;durP1;ratioP1;P1;durP2;ratioP2;P2;SDS_P1;SDS_P2;PMS_P1;PMS_P2;Temp;Humidity;BMP_temperature;BMP_pressure;BME280_temperature;BME280_humidity;BME280_pressure;Samples;Min_cycle;Max_cycle;Signal;HPM_P1;HPM_P2
2024/01/25 00:02:04;;;;;;;36.85;6.90;;;6.90;99.90;;;;;;6176600;23;20066;-66
2024/01/25 00:04:30;;;;;;;35.75;5.97;;;6.90;99.90;;;;;;6145047;23;20112;-66
2024/01/25 00:06:56;;;;;;;37.58;6.38;;;6.90;99.90;;;;;;6176152;23;20025;-66
2024/01/25 00:09:21;;;;;;;35.05;6.68;;;6.90;99.90;;;;;;6177602;23;20020;-65
2024/01/25 00:11:47;;;;;;;32.60;5.60;;;6.90;99.90;;;;;;6176298;23;20024;-64
2024/01/25 00:14:13;;;;;;;39.25;7.38;;;6.90;99.90;;;;;;6175110;23;20021;-65
2024/01/25 00:16:42;;;;;;;36.30;6.68;;;6.90;99.90;;;;;;6176972;23;20072;-64
2024/01/25 00:19:08;;;;;;;43.15;6.95;;;6.80;99.90;;;;;;6175075;23;20052;-65
2024/01/25 00:21:34;;;;;;;40.35;6.95;;;6.80;99.90;;;;;;6149255;23;20307;-64
2024/01/25 00:24:00;;;;;;;41.10;6.68;;;6.90;99.90;;;;;;6175577;23;20454;-65
2024/01/25 00:26:25;;;;;;;44.42;6.88;;;6.90;99.90;;;;;;6174390;23;20040;-64
2024/01/25 00:28:51;;;;;;;33.97;6.32;;;6.90;99.90;;;;;;6175026;23;20508;-65
2024/01/25 00:31:17;;;;;;;41.03;6.38;;;6.90;99.90;;;;;;6176498;23;20020;-65
2024/01/25 00:33:42;;;;;;;54.38;8.98;;;6.90;99.90;;;;;;6174967;23;20349;-65
2024/01/25 00:36:09;;;;;;;52.70;9.07;;;6.90;99.90;;;;;;6177360;23;20382;-65
2024/01/25 00:38:35;;;;;;;42.58;6.63;;;6.80;99.90;;;;;;6176119;23;20544;-65
2024/01/25 00:41:00;;;;;;;46.30;6.60;;;6.80;99.90;;;;;;6149492;23;20048;-65
2024/01/25 00:43:26;;;;;;;39.20;7.03;;;6.70;99.90;;;;;;6177601;23;20586;-65
2024/01/25 00:45:52;;;;;;;37.88;6.88;;;6.70;99.90;;;;;;6175794;23;20025;-65
2024/01/25 00:48:18;;;;;;;39.17;7.63;;;6.70;99.90;;;;;;6174841;23;20084;-65
2024/01/25 00:50:45;;;;;;;38.70;7.07;;;6.70;99.90;;;;;;6176727;23;20099;-65
2024/01/25 00:53:11;;;;;;;51.53;7.43;;;6.60;99.90;;;;;;6177300;23;20024;-65
2024/01/25 00:55:37;;;;;;;45.88;7.35;;;6.70;99.90;;;;;;6175589;23;20338;-66
2024/01/25 00:58:03;;;;;;;37.58;6.95;;;6.70;99.90;;;;;;6176874;23;20043;-65
2024/01/25 01:00:29;;;;;;;44.80;7.15;;;6.60;99.90;;;;;;6169882;23;20367;-66
2024/01/25 01:02:58;;;;;;;41.20;7.15;;;6.60;99.90;;;;;;6175763;23;20112;-66
2024/01/25 01:05:25;;;;;;;46.22;8.15;;;6.60;99.90;;;;;;6148135;23;20017;-66
2024/01/25 01:07:51;;;;;;;45.92;6.82;;;6.60;99.90;;;;;;6147155;23;20025;-66
2024/01/25 01:10:16;;;;;;;45.40;7.85;;;6.60;99.90;;;;;;6150057;23;20047;-66
2024/01/25 01:12:42;;;;;;;43.88;7.57;;;6.50;99.90;;;;;;6178098;23;20021;-66
2024/01/25 01:15:08;;;;;;;44.78;7.68;;;6.50;99.90;;;;;;6174048;23;20060;-65
2024/01/25 01:17:34;;;;;;;45.92;7.70;;;6.50;99.90;;;;;;6174260;23;20520;-66
2024/01/25 01:19:59;;;;;;;39.75;6.95;;;6.50;99.90;;;;;;6176893;23;20110;-66
2024/01/25 01:22:25;;;;;;;45.72;7.68;;;6.50;99.90;;;;;;6149651;23;20031;-66
2024/01/25 01:24:51;;;;;;;37.97;7.22;;;6.50;99.90;;;;;;6176174;23;20029;-66
2024/01/25 01:27:16;;;;;;;50.65;8.82;;;6.50;99.90;;;;;;6175777;23;20017;-66
2024/01/25 01:29:42;;;;;;;39.95;7.85;;;6.50;99.90;;;;;;6148324;23;20096;-66
2024/01/25 01:32:08;;;;;;;41.05;7.55;;;6.50;99.90;;;;;;6174326;23;20017;-66
2024/01/25 01:34:33;;;;;;;56.70;11.32;;;6.50;99.90;;;;;;6176461;23;20017;-65
2024/01/25 01:36:59;;;;;;;52.85;7.53;;;6.40;99.90;;;;;;6175066;23;20024;-66
2024/01/25 01:39:26;;;;;;;53.85;9.32;;;6.40;99.90;;;;;;6150124;23;20549;-66
2024/01/25 01:41:51;;;;;;;53.03;9.68;;;6.40;99.90;;;;;;6176835;23;20021;-66
2024/01/25 01:44:17;;;;;;;31.17;7.65;;;6.40;99.90;;;;;;6175297;23;20036;-66
2024/01/25 01:46:43;;;;;;;46.13;6.55;;;6.40;99.90;;;;;;6174196;23;20049;-66
2024/01/25 01:49:12;;;;;;;53.42;8.63;;;6.40;99.90;;;;;;6149053;23;20013;-66
2024/01/25 01:51:38;;;;;;;36.20;6.40;;;6.40;99.90;;;;;;6149076;23;20053;-65
2024/01/25 01:54:06;;;;;;;36.20;6.45;;;6.40;99.90;;;;;;6175420;23;20366;-66
2024/01/25 01:56:33;;;;;;;31.48;6.78;;;6.30;99.90;;;;;;6149795;23;20013;-66
2024/01/25 01:59:01;;;;;;;40.25;6.88;;;6.30;99.90;;;;;;6169529;23;20017;-66
2024/01/25 02:01:28;;;;;;;50.65;7.65;;;6.30;99.90;;;;;;6176185;23;20017;-66
2024/01/25 02:03:54;;;;;;;41.60;6.10;;;6.30;99.90;;;;;;6173487;23;20021;-66
2024/01/25 02:06:20;;;;;;;40.15;6.43;;;6.20;99.90;;;;;;6173527;23;20025;-66
2024/01/25 02:08:58;;;;;;;46.22;8.55;;;6.20;99.90;;;;;;6166429;23;20458;-66
2024/01/25 02:11:24;;;;;;;37.60;6.93;;;6.20;99.90;;;;;;6174975;23;20017;-66
2024/01/25 02:13:50;;;;;;;49.97;6.13;;;6.20;99.90;;;;;;6175676;23;20056;-66
2024/01/25 02:16:17;;;;;;;39.67;8.07;;;6.10;99.90;;;;;;6148348;23;20071;-66
2024/01/25 02:18:43;;;;;;;50.80;7.32;;;6.10;99.90;;;;;;6175311;23;20017;-66
2024/01/25 02:21:09;;;;;;;44.22;6.97;;;6.10;99.90;;;;;;6176092;23;20087;-66
2024/01/25 02:23:34;;;;;;;37.70;6.55;;;6.10;99.90;;;;;;6175028;23;20024;-66
2024/01/25 02:26:00;;;;;;;44.67;7.22;;;6.10;99.90;;;;;;6146884;23;20028;-66
2024/01/25 02:28:26;;;;;;;50.42;8.10;;;6.10;99.90;;;;;;6173791;23;20325;-66
2024/01/25 02:30:51;;;;;;;39.33;7.93;;;6.10;99.90;;;;;;6173003;23;20024;-66
2024/01/25 02:33:17;;;;;;;49.80;6.88;;;6.00;99.90;;;;;;6173886;23;20651;-66
2024/01/25 02:35:43;;;;;;;43.13;7.28;;;6.10;99.90;;;;;;6149454;23;20025;-66
2024/01/25 02:38:09;;;;;;;68.82;10.07;;;6.00;99.90;;;;;;6172565;23;20040;-66
2024/01/25 02:40:34;;;;;;;49.75;7.40;;;6.00;99.90;;;;;;6176706;23;20379;-66
2024/01/25 02:43:00;;;;;;;43.88;7.30;;;6.00;99.90;;;;;;6178122;23;20029;-65
2024/01/25 02:45:26;;;;;;;42.63;6.90;;;6.00;99.90;;;;;;6178440;23;20013;-66
2024/01/25 02:47:51;;;;;;;42.25;7.03;;;6.00;99.90;;;;;;6176099;23;20091;-66
2024/01/25 02:50:17;;;;;;;51.22;8.55;;;5.90;99.90;;;;;;6151224;23;20028;-66
2024/01/25 02:52:43;;;;;;;40.13;7.05;;;5.90;99.90;;;;;;6175370;23;20013;-66
2024/01/25 02:55:08;;;;;;;44.95;6.88;;;5.90;99.90;;;;;;6177379;23;20021;-66
2024/01/25 02:57:34;;;;;;;38.80;6.32;;;5.90;99.90;;;;;;6178129;23;20552;-66
2024/01/25 03:00:00;;;;;;;44.83;7.65;;;5.80;99.90;;;;;;6170568;23;20013;-66
2024/01/25 03:02:25;;;;;;;41.22;7.10;;;5.80;99.90;;;;;;6176432;23;20017;-66
2024/01/25 03:04:51;;;;;;;40.40;7.68;;;5.80;99.90;;;;;;6178492;23;20432;-66
2024/01/25 03:07:17;;;;;;;45.25;7.25;;;5.80;99.90;;;;;;6174750;23;20021;-66
2024/01/25 03:09:43;;;;;;;43.17;6.85;;;5.70;99.90;;;;;;6150995;23;20096;-66
2024/01/25 03:12:08;;;;;;;41.72;7.85;;;5.70;99.90;;;;;;6177232;23;20005;-66
2024/01/25 03:14:34;;;;;;;43.60;7.13;;;5.70;99.90;;;;;;6177703;23;20024;-66
2024/01/25 03:17:00;;;;;;;45.20;6.43;;;5.70;99.90;;;;;;6149804;23;20075;-65
2024/01/25 03:19:26;;;;;;;46.05;8.05;;;5.70;99.90;;;;;;6151411;23;20029;-66
2024/01/25 03:21:52;;;;;;;46.53;7.30;;;5.70;99.90;;;;;;6176584;23;20027;-66
2024/01/25 03:24:18;;;;;;;55.85;8.85;;;5.70;99.90;;;;;;6176657;23;20091;-66
2024/01/25 03:26:44;;;;;;;45.53;7.07;;;5.70;99.90;;;;;;6151334;23;20014;-66
2024/01/25 03:29:09;;;;;;;35.72;6.35;;;5.70;99.90;;;;;;6175662;23;20095;-66
2024/01/25 03:31:36;;;;;;;50.40;8.20;;;5.70;99.90;;;;;;6177071;23;20021;-66
2024/01/25 03:34:02;;;;;;;43.08;7.45;;;5.70;99.90;;;;;;6150272;23;20017;-66
2024/01/25 03:36:28;;;;;;;53.15;8.73;;;5.60;99.90;;;;;;6176002;23;20055;-66
2024/01/25 03:38:53;;;;;;;55.80;9.23;;;5.60;99.90;;;;;;6174159;23;20017;-66
2024/01/25 03:41:20;;;;;;;47.55;7.72;;;5.60;99.90;;;;;;6176868;23;20452;-66
2024/01/25 03:43:45;;;;;;;49.83;8.48;;;5.50;99.90;;;;;;6149668;23;20389;-66
2024/01/25 03:46:12;;;;;;;45.90;7.75;;;5.50;99.90;;;;;;6177716;23;20068;-64
2024/01/25 03:48:38;;;;;;;49.60;7.93;;;5.50;99.90;;;;;;6149199;23;20025;-64
2024/01/25 03:51:04;;;;;;;50.58;8.52;;;5.40;99.90;;;;;;6174664;23;20021;-64
2024/01/25 03:53:29;;;;;;;49.80;8.45;;;5.40;99.90;;;;;;6148912;23;20422;-64
2024/01/25 03:55:55;;;;;;;46.50;6.90;;;5.40;99.90;;;;;;6150450;23;20438;-64
2024/01/25 03:58:21;;;;;;;52.72;6.85;;;5.30;99.90;;;;;;6175025;23;20021;-64
2024/01/25 04:00:47;;;;;;;45.58;8.77;;;5.40;99.90;;;;;;6142874;23;20032;-64
2024/01/25 04:03:13;;;;;;;45.30;7.70;;;5.30;99.90;;;;;;6148130;23;20020;-64
2024/01/25 04:05:42;;;;;;;55.30;8.05;;;5.30;99.90;;;;;;6178076;23;20470;-65
2024/01/25 04:08:08;;;;;;;46.67;6.82;;;5.20;99.90;;;;;;6175873;23;20025;-65
2024/01/25 04:10:33;;;;;;;46.30;7.97;;;5.20;99.90;;;;;;6175320;23;20128;-65
2024/01/25 04:13:04;;;;;;;46.25;7.15;;;5.20;99.90;;;;;;6150841;23;20056;-65
2024/01/25 04:15:30;;;;;;;47.20;7.80;;;5.20;99.90;;;;;;6178193;23;20013;-65
2024/01/25 04:17:56;;;;;;;55.65;7.90;;;5.10;99.90;;;;;;6176135;23;20028;-65
2024/01/25 04:20:22;;;;;;;58.35;8.55;;;5.10;99.90;;;;;;6150951;23;20021;-64
2024/01/25 04:22:48;;;;;;;49.47;9.18;;;5.10;99.90;;;;;;6175699;23;20434;-65
2024/01/25 04:25:13;;;;;;;54.90;8.52;;;5.00;99.90;;;;;;6176208;23;20071;-65
2024/01/25 04:27:39;;;;;;;59.67;9.98;;;5.00;99.90;;;;;;6175887;23;20095;-65
2024/01/25 04:30:06;;;;;;;47.45;7.13;;;5.00;99.90;;;;;;6175412;23;20354;-64
2024/01/25 04:32:32;;;;;;;45.75;7.43;;;5.00;99.90;;;;;;6175808;23;20024;-65
2024/01/25 04:34:58;;;;;;;44.70;7.47;;;5.00;99.90;;;;;;6175269;23;20020;-65
2024/01/25 04:37:23;;;;;;;57.00;9.32;;;5.00;99.90;;;;;;6175873;23;20025;-65
2024/01/25 04:39:49;;;;;;;44.45;7.93;;;5.00;99.90;;;;;;6176388;23;20397;-65
2024/01/25 04:42:15;;;;;;;54.20;8.48;;;5.00;99.90;;;;;;6149752;23;20021;-65
2024/01/25 04:44:40;;;;;;;58.30;8.30;;;5.00;99.90;;;;;;6174742;23;20413;-65
2024/01/25 04:47:06;;;;;;;51.35;8.27;;;5.00;99.90;;;;;;6176693;23;20394;-65
2024/01/25 04:49:32;;;;;;;54.33;7.60;;;5.00;99.90;;;;;;6176159;23;20411;-64
2024/01/25 04:51:57;;;;;;;57.80;7.88;;;5.00;99.90;;;;;;6150704;23;20022;-65
2024/01/25 04:54:23;;;;;;;50.97;8.48;;;5.10;99.90;;;;;;6148546;23;20032;-65
2024/01/25 04:56:49;;;;;;;57.50;8.88;;;5.00;99.90;;;;;;6177090;23;20063;-65
2024/01/25 04:59:14;;;;;;;54.90;7.70;;;5.00;99.90;;;;;;6171748;23;20021;-64
2024/01/25 05:01:40;;;;;;;53.67;7.97;;;5.00;99.90;;;;;;6148516;23;20773;-65
2024/01/25 05:04:06;;;;;;;51.65;8.35;;;5.00;99.90;;;;;;6175739;23;20430;-65
2024/01/25 05:06:31;;;;;;;58.28;8.57;;;5.00;99.90;;;;;;6174136;23;20527;-65
2024/01/25 05:08:57;;;;;;;52.65;8.13;;;4.90;99.90;;;;;;6175868;23;20021;-65
2024/01/25 05:11:23;;;;;;;64.05;10.00;;;4.90;99.90;;;;;;6176059;23;20028;-65
2024/01/25 05:13:48;;;;;;;54.72;7.13;;;4.90;99.90;;;;;;6148499;23;20020;-65
2024/01/25 05:16:14;;;;;;;41.83;7.40;;;4.80;99.90;;;;;;6176166;23;20048;-65
2024/01/25 05:18:39;;;;;;;47.33;7.85;;;4.80;99.90;;;;;;6150006;23;20028;-65
2024/01/25 05:21:06;;;;;;;47.40;8.15;;;4.80;99.90;;;;;;6175131;23;20036;-65
2024/01/25 05:23:31;;;;;;;55.42;8.50;;;4.70;99.90;;;;;;6148076;23;20021;-65
2024/01/25 05:25:57;;;;;;;57.60;8.68;;;4.70;99.90;;;;;;6149736;23;20104;-65
2024/01/25 05:28:24;;;;;;;42.38;6.68;;;4.70;99.90;;;;;;6176368;23;20539;-65
2024/01/25 05:30:50;;;;;;;65.50;10.30;;;4.70;99.90;;;;;;6177182;23;20374;-65
2024/01/25 05:33:16;;;;;;;61.83;8.35;;;4.70;99.90;;;;;;6149951;23;20017;-65
2024/01/25 05:35:41;;;;;;;55.13;9.55;;;4.70;99.90;;;;;;6147320;23;20021;-65
2024/01/25 05:38:07;;;;;;;46.08;6.60;;;4.70;99.90;;;;;;6175405;23;20079;-65
2024/01/25 05:40:32;;;;;;;42.83;6.18;;;4.70;99.90;;;;;;6175945;23;20330;-65
2024/01/25 05:42:59;;;;;;;48.50;8.35;;;4.70;99.90;;;;;;6148382;23;20442;-65
2024/01/25 05:45:26;;;;;;;49.78;7.70;;;4.70;99.90;;;;;;6175856;23;20021;-65
2024/01/25 05:47:52;;;;;;;51.00;8.65;;;4.70;99.90;;;;;;6150229;23;20020;-65
2024/01/25 05:50:18;;;;;;;54.53;8.85;;;4.70;99.90;;;;;;6176870;23;20017;-65
2024/01/25 05:52:44;;;;;;;46.63;8.00;;;4.60;99.90;;;;;;6176344;23;20024;-65
2024/01/25 05:55:09;;;;;;;60.22;7.68;;;4.60;99.90;;;;;;6176235;23;20025;-65
2024/01/25 05:57:36;;;;;;;57.78;8.13;;;4.60;99.90;;;;;;6146012;23;20013;-64
2024/01/25 06:00:03;;;;;;;49.33;7.07;;;4.60;99.90;;;;;;6171528;23;20039;-65
2024/01/25 06:02:29;;;;;;;47.55;7.60;;;4.60;99.90;;;;;;6150513;23;20365;-65
2024/01/25 06:04:58;;;;;;;43.95;6.53;;;4.60;99.90;;;;;;6175818;23;20100;-65
2024/01/25 06:07:23;;;;;;;45.97;5.65;;;4.60;99.90;;;;;;6174972;23;20685;-65
2024/01/25 06:09:49;;;;;;;47.95;6.97;;;4.50;99.90;;;;;;6148201;23;20017;-65
2024/01/25 06:12:15;;;;;;;53.78;8.52;;;4.50;99.90;;;;;;6173131;23;20017;-65
2024/01/25 06:14:40;;;;;;;47.20;6.68;;;4.50;99.90;;;;;;6148213;23;20480;-66
2024/01/25 06:17:06;;;;;;;47.33;7.38;;;4.40;99.90;;;;;;6176982;23;20024;-65
2024/01/25 06:19:34;;;;;;;48.67;8.05;;;4.30;99.90;;;;;;6176213;23;20103;-65
2024/01/25 06:22:00;;;;;;;47.30;6.70;;;4.30;99.90;;;;;;6151644;23;20032;-66
2024/01/25 06:24:25;;;;;;;56.60;9.20;;;4.30;99.90;;;;;;6177816;23;20025;-65
2024/01/25 06:26:52;;;;;;;43.15;7.32;;;4.30;99.90;;;;;;6177291;23;20017;-65
2024/01/25 06:29:18;;;;;;;58.67;9.30;;;4.30;99.90;;;;;;6178146;23;20029;-65
2024/01/25 06:31:44;;;;;;;52.90;7.28;;;4.30;99.90;;;;;;6177058;23;20019;-65
2024/01/25 06:34:10;;;;;;;46.83;6.43;;;4.30;99.90;;;;;;6177999;23;20473;-65
2024/01/25 06:36:36;;;;;;;59.72;8.98;;;4.20;99.90;;;;;;6175665;23;20013;-65
2024/01/25 06:39:04;;;;;;;67.15;8.35;;;4.20;99.90;;;;;;6175473;23;20742;-65
2024/01/25 06:41:29;;;;;;;59.47;8.30;;;4.20;99.90;;;;;;6176385;23;20319;-65
2024/01/25 06:43:55;;;;;;;58.15;7.20;;;4.20;99.90;;;;;;6148413;23;20044;-65
2024/01/25 06:46:21;;;;;;;60.22;7.07;;;4.20;99.90;;;;;;6172994;23;20025;-65
2024/01/25 06:48:46;;;;;;;62.00;7.22;;;4.20;99.90;;;;;;6175487;23;20028;-65
2024/01/25 06:51:13;;;;;;;49.80;8.45;;;4.10;99.90;;;;;;6174276;23;20028;-66
2024/01/25 06:53:39;;;;;;;60.97;9.05;;;4.10;99.90;;;;;;6175733;23;20017;-66
2024/01/25 06:56:05;;;;;;;62.75;8.70;;;4.10;99.90;;;;;;6177776;23;20021;-66
2024/01/25 06:58:32;;;;;;;56.70;7.50;;;4.10;99.90;;;;;;6143660;23;20100;-64
2024/01/25 07:00:58;;;;;;;48.65;8.75;;;4.10;99.90;;;;;;6150621;23;20107;-63
2024/01/25 07:03:24;;;;;;;49.20;7.13;;;4.10;99.90;;;;;;6172644;23;20009;-68
2024/01/25 07:05:49;;;;;;;50.65;7.78;;;4.10;99.90;;;;;;6146094;23;20025;-68
2024/01/25 07:08:15;;;;;;;57.83;7.05;;;4.10;99.90;;;;;;6174250;23;20044;-68
2024/01/25 07:10:42;;;;;;;60.13;10.00;;;4.00;99.90;;;;;;6177869;23;20025;-68
2024/01/25 07:13:07;;;;;;;53.42;7.35;;;4.00;99.90;;;;;;6174708;23;20028;-68
2024/01/25 07:15:33;;;;;;;61.50;9.05;;;4.00;99.90;;;;;;6178268;23;20021;-69
2024/01/25 07:17:59;;;;;;;62.10;7.85;;;4.00;99.90;;;;;;6177662;23;20534;-68
2024/01/25 07:20:24;;;;;;;59.50;9.38;;;4.00;99.90;;;;;;6178316;23;20041;-68
2024/01/25 07:22:50;;;;;;;56.78;9.18;;;4.00;99.90;;;;;;6177089;23;20028;-68
2024/01/25 07:25:16;;;;;;;54.13;8.10;;;4.00;99.90;;;;;;6151531;23;20064;-68
2024/01/25 07:27:45;;;;;;;49.58;8.32;;;4.10;99.90;;;;;;6174840;23;20405;-68
2024/01/25 07:30:15;;;;;;;61.58;9.98;;;4.10;99.90;;;;;;6176739;23;20029;-68
2024/01/25 07:32:42;;;;;;;58.60;8.52;;;4.20;99.90;;;;;;6174652;23;20035;-68
2024/01/25 07:35:09;;;;;;;68.55;8.40;;;4.10;99.90;;;;;;6175957;23;20017;-73
2024/01/25 07:37:36;;;;;;;61.13;8.15;;;4.10;99.90;;;;;;6149911;23;20120;-67
2024/01/25 07:40:03;;;;;;;63.03;7.97;;;4.20;99.90;;;;;;6151601;23;20053;-69
2024/01/25 07:42:29;;;;;;;52.95;8.05;;;4.20;99.90;;;;;;6150990;23;20024;-68
2024/01/25 07:44:55;;;;;;;50.95;7.13;;;4.20;99.90;;;;;;6151390;23;20021;-69
2024/01/25 07:47:21;;;;;;;71.80;11.27;;;4.20;99.90;;;;;;6175543;23;20028;-69
2024/01/25 07:49:46;;;;;;;54.97;7.53;;;4.20;99.90;;;;;;6150485;23;20017;-69
2024/01/25 07:52:12;;;;;;;54.45;7.50;;;4.20;99.90;;;;;;6151856;23;20083;-69
2024/01/25 07:54:37;;;;;;;50.80;7.18;;;4.20;99.90;;;;;;6177954;23;20075;-70
2024/01/25 07:57:03;;;;;;;61.67;8.50;;;4.20;99.90;;;;;;6177841;23;20035;-69
2024/01/25 07:59:29;;;;;;;73.45;7.50;;;4.20;99.90;;;;;;6147375;23;20295;-69
2024/01/25 08:01:55;;;;;;;56.45;9.25;;;4.20;99.90;;;;;;6152543;23;20102;-69
2024/01/25 08:04:20;;;;;;;55.97;7.55;;;4.20;99.90;;;;;;6176570;23;20373;-69
2024/01/25 08:06:46;;;;;;;47.20;7.80;;;4.20;99.90;;;;;;6178602;23;20084;-69
2024/01/25 08:09:12;;;;;;;54.85;7.50;;;4.30;99.90;;;;;;6176866;23;20029;-69
2024/01/25 08:11:37;;;;;;;67.85;8.80;;;4.30;99.90;;;;;;6151765;23;20028;-69
2024/01/25 08:14:03;;;;;;;55.08;7.90;;;4.30;99.90;;;;;;6178597;23;20041;-69
2024/01/25 08:16:29;;;;;;;55.53;8.60;;;4.30;99.90;;;;;;6151675;23;20021;-69
2024/01/25 08:18:55;;;;;;;70.07;10.65;;;4.40;99.90;;;;;;6150883;23;20390;-69
2024/01/25 08:21:21;;;;;;;55.53;8.30;;;4.40;99.90;;;;;;6150556;23;20048;-70
2024/01/25 08:23:47;;;;;;;56.53;7.85;;;4.40;99.90;;;;;;6174977;23;20075;-68
2024/01/25 08:26:13;;;;;;;53.22;7.85;;;4.50;99.90;;;;;;6151183;23;20028;-68
2024/01/25 08:28:44;;;;;;;53.95;9.02;;;4.50;99.90;;;;;;6178410;23;20047;-68
2024/01/25 08:31:10;;;;;;;50.53;7.95;;;4.50;99.90;;;;;;6151862;23;20481;-68
2024/01/25 08:33:36;;;;;;;58.55;9.35;;;4.50;99.90;;;;;;6178319;23;20013;-68
2024/01/25 08:36:02;;;;;;;58.15;8.73;;;4.50;99.90;;;;;;6151323;23;20349;-68
2024/01/25 08:38:28;;;;;;;51.85;8.10;;;4.50;99.90;;;;;;6150369;23;20557;-68
2024/01/25 08:40:53;;;;;;;51.95;11.80;;;4.50;99.90;;;;;;6177764;23;20024;-68
2024/01/25 08:43:19;;;;;;;56.08;11.80;;;4.50;99.90;;;;;;6177962;23;20496;-68
2024/01/25 08:45:45;;;;;;;62.15;11.30;;;4.60;99.90;;;;;;6177109;23;20067;-68
2024/01/25 08:48:11;;;;;;;50.83;8.48;;;4.60;99.90;;;;;;6151552;23;20688;-68
2024/01/25 08:50:36;;;;;;;50.95;10.18;;;4.60;99.90;;;;;;6178849;23;20013;-68
2024/01/25 08:53:02;;;;;;;55.42;8.45;;;4.70;99.90;;;;;;6174410;23;20596;-68
2024/01/25 08:55:28;;;;;;;62.88;8.43;;;4.70;99.90;;;;;;6150676;23;20021;-66
2024/01/25 08:57:53;;;;;;;53.20;9.32;;;4.70;99.90;;;;;;6150656;23;20021;-66
2024/01/25 09:00:19;;;;;;;53.67;8.77;;;4.80;99.90;;;;;;6170837;23;20021;-66
2024/01/25 09:02:45;;;;;;;57.65;8.68;;;4.80;99.90;;;;;;6178350;23;20096;-66
2024/01/25 09:05:11;;;;;;;61.17;9.88;;;4.90;99.90;;;;;;6151456;23;20024;-66
2024/01/25 09:07:37;;;;;;;52.10;8.70;;;4.90;99.90;;;;;;6149656;23;20024;-66
2024/01/25 09:10:06;;;;;;;56.60;7.82;;;5.00;99.90;;;;;;6178680;23;20013;-66
2024/01/25 09:12:32;;;;;;;57.83;7.88;;;5.00;99.90;;;;;;6177555;23;20493;-66
2024/01/25 09:14:58;;;;;;;63.47;10.32;;;5.00;99.90;;;;;;6176950;23;20079;-66
2024/01/25 09:17:23;;;;;;;61.45;9.43;;;5.10;99.90;;;;;;6177440;23;20021;-66
2024/01/25 09:19:50;;;;;;;50.50;8.70;;;5.10;99.90;;;;;;6178099;23;20021;-66
2024/01/25 09:22:17;;;;;;;60.28;7.93;;;5.10;99.90;;;;;;6176915;23;20021;-66
2024/01/25 09:24:43;;;;;;;51.10;8.02;;;5.20;99.90;;;;;;6176853;23;20025;-66
2024/01/25 09:27:09;;;;;;;57.65;8.57;;;5.20;99.90;;;;;;6176000;23;20040;-66
2024/01/25 09:29:35;;;;;;;53.92;9.90;;;5.20;99.90;;;;;;6178636;23;20092;-66
2024/01/25 09:32:00;;;;;;;53.65;8.27;;;5.20;99.90;;;;;;6151021;23;20064;-66
2024/01/25 09:34:26;;;;;;;48.20;7.28;;;5.20;99.90;;;;;;6176706;23;20033;-66
2024/01/25 09:36:52;;;;;;;54.42;9.23;;;5.30;99.90;;;;;;6177894;23;20107;-66
2024/01/25 09:39:17;;;;;;;56.85;8.77;;;5.30;99.90;;;;;;6177100;23;20028;-66
2024/01/25 09:41:43;;;;;;;57.78;9.90;;;5.30;99.90;;;;;;6177338;23;20403;-66
2024/01/25 09:44:10;;;;;;;49.88;8.30;;;5.30;99.90;;;;;;6178261;23;20091;-66
2024/01/25 09:46:37;;;;;;;39.13;9.38;;;5.30;99.90;;;;;;6176883;23;20023;-66
2024/01/25 09:49:04;;;;;;;48.60;7.97;;;5.30;99.90;;;;;;6150832;23;20485;-66
2024/01/25 09:51:39;;;;;;;49.92;7.65;;;5.30;99.90;;;;;;6179084;23;20056;-66
2024/01/25 09:54:05;;;;;;;55.22;9.02;;;5.30;99.90;;;;;;6179096;23;20023;-66
2024/01/25 09:56:32;;;;;;;53.22;9.10;;;5.30;99.90;;;;;;6178596;23;20317;-66
2024/01/25 09:58:58;;;;;;;53.65;8.15;;;5.40;99.90;;;;;;6147924;23;20028;-66
2024/01/25 10:01:24;;;;;;;46.67;8.10;;;5.40;99.90;;;;;;6179778;23;20049;-66
2024/01/25 10:03:50;;;;;;;43.38;10.13;;;5.40;99.90;;;;;;6179242;23;20080;-66
2024/01/25 10:06:17;;;;;;;64.55;11.13;;;5.50;99.90;;;;;;6177135;23;20100;-67
2024/01/25 10:08:43;;;;;;;57.80;8.30;;;5.60;99.90;;;;;;6177673;23;20035;-66
2024/01/25 10:11:09;;;;;;;49.75;9.85;;;5.60;99.90;;;;;;6151678;23;20031;-66
2024/01/25 10:13:45;;;;;;;44.47;9.52;;;5.60;99.90;;;;;;6179832;23;20077;-66
2024/01/25 10:16:15;;;;;;;48.20;7.68;;;5.70;99.90;;;;;;6178647;23;20454;-67
2024/01/25 10:18:46;;;;;;;56.88;9.18;;;5.80;99.90;;;;;;6153133;23;20044;-66
2024/01/25 10:21:13;;;;;;;53.60;7.65;;;5.80;99.90;;;;;;6179554;23;20029;-66
2024/01/25 10:23:39;;;;;;;31.05;8.30;;;5.90;99.90;;;;;;6177449;23;20116;-66
2024/01/25 10:26:07;;;;;;;60.47;7.82;;;5.90;99.90;;;;;;6178765;23;20017;-67
2024/01/25 10:28:33;;;;;;;61.53;9.98;;;6.00;99.90;;;;;;6179487;23;20108;-66
2024/01/25 10:31:04;;;;;;;52.58;8.02;;;6.10;99.90;;;;;;6179122;23;20025;-66
2024/01/25 10:33:30;;;;;;;51.03;9.15;;;6.20;99.90;;;;;;6179527;23;20045;-66
2024/01/25 10:36:03;;;;;;;46.55;11.20;;;6.30;99.90;;;;;;6180090;23;20021;-66
2024/01/25 10:38:35;;;;;;;50.53;9.98;;;6.40;99.90;;;;;;6176860;23;20099;-66
2024/01/25 10:41:02;;;;;;;52.47;8.65;;;6.50;99.90;;;;;;6178832;23;20104;-66
2024/01/25 10:43:32;;;;;;;48.53;8.70;;;6.60;99.90;;;;;;6176720;23;20020;-66
2024/01/25 10:45:59;;;;;;;49.88;8.93;;;6.70;99.90;;;;;;6178348;23;20021;-66
2024/01/25 10:48:31;;;;;;;49.45;8.82;;;6.80;99.90;;;;;;6178794;23;20009;-66
2024/01/25 10:50:59;;;;;;;51.63;9.10;;;6.90;99.90;;;;;;6179965;23;20028;-66
2024/01/25 10:53:26;;;;;;;43.17;7.55;;;6.90;99.90;;;;;;6150948;23;20060;-66
2024/01/25 10:55:52;;;;;;;48.47;9.15;;;7.10;99.90;;;;;;6152451;23;20021;-66
2024/01/25 10:58:18;;;;;;;45.92;9.32;;;7.10;99.90;;;;;;6177603;23;20035;-66
2024/01/25 11:00:58;;;;;;;53.53;10.50;;;7.20;99.90;;;;;;6173783;23;20398;-66
2024/01/25 11:03:27;;;;;;;40.92;7.45;;;7.30;99.90;;;;;;6151750;23;20096;-66
2024/01/25 11:05:55;;;;;;;39.28;7.28;;;7.30;99.90;;;;;;6151018;23;20112;-66
2024/01/25 11:08:21;;;;;;;47.17;9.60;;;7.30;99.90;;;;;;6177244;23;20407;-66
2024/01/25 11:10:52;;;;;;;54.13;8.27;;;7.40;99.90;;;;;;6178861;23;20116;-66
2024/01/25 11:13:25;;;;;;;53.05;10.52;;;7.40;99.90;;;;;;6177638;23;20017;-66
2024/01/25 11:15:51;;;;;;;46.85;9.15;;;7.30;99.90;;;;;;6179091;23;20029;-67
2024/01/25 11:18:18;;;;;;;52.70;8.88;;;7.30;99.90;;;;;;6179093;23;20021;-67
2024/01/25 11:20:47;;;;;;;45.60;8.93;;;7.30;99.90;;;;;;6176570;23;20017;-66
2024/01/25 11:23:15;;;;;;;34.08;6.82;;;7.30;99.90;;;;;;6177470;23;20444;-66
2024/01/25 11:25:45;;;;;;;58.10;11.15;;;7.20;99.90;;;;;;6177707;23;20094;-66
2024/01/25 11:28:13;;;;;;;49.13;10.57;;;7.20;99.90;;;;;;6150858;23;20514;-66
2024/01/25 11:30:39;;;;;;;43.60;8.77;;;7.20;99.90;;;;;;6152164;23;20458;-66
2024/01/25 11:33:07;;;;;;;41.75;10.55;;;7.20;99.90;;;;;;6178262;23;20024;-66
2024/01/25 11:35:33;;;;;;;38.88;7.47;;;7.20;99.90;;;;;;6150222;23;20033;-67
2024/01/25 11:37:59;;;;;;;47.25;9.73;;;7.20;99.90;;;;;;6177300;23;20052;-66
2024/01/25 11:40:25;;;;;;;60.85;9.35;;;7.20;99.90;;;;;;6177809;23;20636;-67
2024/01/25 11:42:51;;;;;;;48.50;7.78;;;7.20;99.90;;;;;;6178140;23;20205;-66
2024/01/25 11:45:17;;;;;;;49.38;9.23;;;7.20;99.90;;;;;;6178805;23;20053;-67
2024/01/25 11:47:44;;;;;;;39.90;9.30;;;7.20;99.90;;;;;;6176768;23;20071;-67
2024/01/25 11:50:12;;;;;;;40.17;9.45;;;7.20;99.90;;;;;;6178981;23;20013;-66
2024/01/25 11:52:38;;;;;;;54.42;11.75;;;7.30;99.90;;;;;;6176994;23;20027;-66
2024/01/25 11:55:06;;;;;;;47.67;9.38;;;7.30;99.90;;;;;;6177775;23;20013;-66
2024/01/25 11:57:35;;;;;;;47.67;8.65;;;7.40;99.90;;;;;;6151775;23;20395;-66
2024/01/25 12:00:02;;;;;;;52.78;9.10;;;7.40;99.90;;;;;;6172374;23;20505;-66
2024/01/25 12:02:28;;;;;;;48.58;8.93;;;7.50;99.90;;;;;;6177124;23;20476;-66
2024/01/25 12:04:56;;;;;;;53.05;9.43;;;7.50;99.90;;;;;;6175384;23;20025;-66
2024/01/25 12:07:22;;;;;;;51.70;9.10;;;7.50;99.90;;;;;;6177198;23;20051;-66
2024/01/25 12:10:04;;;;;;;43.17;9.68;;;7.50;99.90;;;;;;6176479;23;20025;-66
2024/01/25 12:12:30;;;;;;;44.00;8.65;;;7.60;99.90;;;;;;6177940;23;20032;-67
2024/01/25 12:15:00;;;;;;;37.25;8.45;;;7.60;99.90;;;;;;6150614;23;20017;-66
2024/01/25 12:17:29;;;;;;;42.60;8.82;;;7.70;99.90;;;;;;6176243;23;20069;-66
2024/01/25 12:19:56;;;;;;;43.75;8.73;;;7.70;99.90;;;;;;6151983;23;20021;-66
2024/01/25 12:22:22;;;;;;;42.53;9.32;;;7.70;99.90;;;;;;6177887;23;20021;-66
2024/01/25 12:24:49;;;;;;;42.05;9.10;;;7.80;99.90;;;;;;6176070;23;20039;-66
2024/01/25 12:27:17;;;;;;;43.88;9.35;;;7.80;99.90;;;;;;6176790;23;20020;-67
2024/01/25 12:29:45;;;;;;;40.78;7.72;;;7.80;99.90;;;;;;6150403;23;20473;-66
2024/01/25 12:32:11;;;;;;;43.25;7.55;;;7.80;99.90;;;;;;6148378;23;20028;-69
2024/01/25 12:34:39;;;;;;;43.13;9.13;;;7.80;99.90;;;;;;6148667;23;20020;-69
2024/01/25 12:37:04;;;;;;;51.90;10.55;;;7.70;99.90;;;;;;6174871;23;20092;-69
2024/01/25 12:39:30;;;;;;;55.00;9.68;;;7.70;99.90;;;;;;6151235;23;20118;-69
2024/01/25 12:41:56;;;;;;;43.92;10.50;;;7.70;99.90;;;;;;6178862;23;20017;-69